createdAt,value
2019-03-17T00:02:06.953Z,12.07
2019-03-17T00:04:36.495Z,12.06
2019-03-17T00:07:06.041Z,12.08
2019-03-17T00:09:35.563Z,12.05
2019-03-17T00:12:05.120Z,12.05
2019-03-17T00:14:34.805Z,12.06
2019-03-17T00:17:04.344Z,12.03
2019-03-17T00:19:33.844Z,12.01
2019-03-17T00:22:03.396Z,12.00
2019-03-17T00:24:32.919Z,11.91
2019-03-17T00:27:02.453Z,11.91
2019-03-17T00:29:32.055Z,11.93
2019-03-17T00:32:01.574Z,11.93
2019-03-17T00:34:43.176Z,11.91
2019-03-17T00:37:02.358Z,11.88
2019-03-17T00:39:31.882Z,11.90
2019-03-17T00:42:01.421Z,11.86
2019-03-17T00:44:30.947Z,11.91
2019-03-17T00:47:00.470Z,11.92
2019-03-17T00:49:29.983Z,11.93
2019-03-17T00:51:59.540Z,11.93
2019-03-17T00:54:29.101Z,11.97
2019-03-17T00:56:58.721Z,11.98
2019-03-17T00:59:28.265Z,12.01
2019-03-17T01:01:57.815Z,12.08
2019-03-17T01:04:27.347Z,12.11
2019-03-17T01:06:56.882Z,12.12
2019-03-17T01:09:26.412Z,12.15
2019-03-17T01:11:55.942Z,12.18
2019-03-17T01:14:25.476Z,12.22
2019-03-17T01:16:55.016Z,12.22
2019-03-17T01:19:24.536Z,12.23
2019-03-17T01:21:54.080Z,12.19
2019-03-17T01:24:23.684Z,12.27
2019-03-17T01:26:53.222Z,12.26
2019-03-17T01:29:22.740Z,12.24
2019-03-17T01:31:52.268Z,12.27
2019-03-17T01:34:21.783Z,12.30
2019-03-17T01:36:51.355Z,12.25
2019-03-17T01:39:20.847Z,12.27
2019-03-17T01:41:50.352Z,12.27
2019-03-17T01:44:19.944Z,12.26
2019-03-17T01:46:49.478Z,12.21
2019-03-17T01:49:19.017Z,12.29
2019-03-17T01:51:48.519Z,12.33
2019-03-17T01:54:18.123Z,12.33
2019-03-17T01:56:47.649Z,12.32
2019-03-17T01:59:17.253Z,12.29
2019-03-17T02:01:46.803Z,12.34
2019-03-17T02:04:16.357Z,12.30
2019-03-17T02:06:45.888Z,12.33
2019-03-17T02:09:15.434Z,12.36
2019-03-17T02:11:44.946Z,12.35
2019-03-17T02:14:14.471Z,12.34
2019-03-17T02:16:44.001Z,12.36
2019-03-17T02:19:13.549Z,12.32
2019-03-17T02:21:43.073Z,12.32
2019-03-17T02:24:12.658Z,12.27
2019-03-17T02:26:42.183Z,12.24
2019-03-17T02:29:11.730Z,12.23
2019-03-17T02:31:41.249Z,12.17
2019-03-17T02:34:12.105Z,12.07
2019-03-17T02:36:41.893Z,11.99
2019-03-17T02:39:11.422Z,11.87
2019-03-17T02:41:40.958Z,11.77
2019-03-17T02:44:10.477Z,11.75
2019-03-17T02:46:40.006Z,11.68
2019-03-17T02:49:09.544Z,11.64
2019-03-17T02:51:39.082Z,11.58
2019-03-17T02:54:08.609Z,11.59
2019-03-17T02:56:38.184Z,11.52
2019-03-17T02:59:07.732Z,11.49
2019-03-17T03:01:37.260Z,11.39
2019-03-17T03:04:06.953Z,11.28
2019-03-17T03:06:36.473Z,11.21
2019-03-17T03:09:07.059Z,11.09
2019-03-17T03:11:36.733Z,10.99
2019-03-17T03:14:06.315Z,10.95
2019-03-17T03:16:35.815Z,10.84
2019-03-17T03:19:05.352Z,10.76
2019-03-17T03:21:34.884Z,10.70
2019-03-17T03:24:04.446Z,10.65
2019-03-17T03:26:33.957Z,10.56
2019-03-17T03:29:03.492Z,10.51
2019-03-17T03:31:33.048Z,10.44
2019-03-17T03:34:02.605Z,10.36
2019-03-17T03:36:32.121Z,10.31
2019-03-17T03:39:01.661Z,10.25
2019-03-17T03:41:31.221Z,10.18
2019-03-17T03:44:00.836Z,10.15
2019-03-17T03:46:30.378Z,10.16
2019-03-17T03:48:59.907Z,10.13
2019-03-17T03:51:29.444Z,10.30
2019-03-17T03:53:58.980Z,10.41
2019-03-17T03:56:28.522Z,10.58
2019-03-17T03:58:58.055Z,10.73
2019-03-17T04:01:27.635Z,10.91
2019-03-17T04:03:57.180Z,11.01
2019-03-17T04:06:27.307Z,11.14
2019-03-17T04:08:56.936Z,11.24
2019-03-17T04:11:26.486Z,11.33
2019-03-17T04:13:56.001Z,11.43
2019-03-17T04:16:25.535Z,11.53
2019-03-17T04:18:55.074Z,11.57
2019-03-17T04:21:24.602Z,11.64
2019-03-17T04:23:54.134Z,11.66
2019-03-17T04:26:23.683Z,11.77
2019-03-17T04:28:53.211Z,11.83
2019-03-17T04:31:22.748Z,11.88
2019-03-17T04:33:52.296Z,11.90
2019-03-17T04:36:21.833Z,11.98
2019-03-17T04:38:51.345Z,12.00
2019-03-17T04:41:20.876Z,12.04
2019-03-17T04:43:50.416Z,12.07
2019-03-17T04:46:19.950Z,12.13
2019-03-17T04:48:49.510Z,12.21
2019-03-17T04:51:19.070Z,12.28
2019-03-17T04:53:48.648Z,12.39
2019-03-17T04:56:18.175Z,12.47
2019-03-17T04:58:47.723Z,12.56
2019-03-17T05:01:17.249Z,12.62
2019-03-17T05:03:46.780Z,12.70
2019-03-17T05:06:16.329Z,12.83
2019-03-17T05:08:45.876Z,12.87
2019-03-17T05:11:15.401Z,12.92
2019-03-17T05:13:44.957Z,13.02
2019-03-17T05:16:14.490Z,13.17
2019-03-17T05:18:44.012Z,13.35
2019-03-17T05:21:13.521Z,13.47
2019-03-17T05:23:43.071Z,13.56
2019-03-17T05:26:12.587Z,13.63
2019-03-17T05:28:42.125Z,13.68
2019-03-17T05:31:11.669Z,13.77
2019-03-17T05:33:41.225Z,13.78
2019-03-17T05:36:10.748Z,13.83
2019-03-17T05:38:40.288Z,13.83
2019-03-17T05:41:09.808Z,13.92
2019-03-17T05:43:39.332Z,14.03
2019-03-17T05:46:08.859Z,14.15
2019-03-17T05:48:38.407Z,14.23
2019-03-17T05:51:07.926Z,14.34
2019-03-17T05:53:40.282Z,14.48
2019-03-17T05:56:08.700Z,14.60
2019-03-17T05:58:38.224Z,14.66
2019-03-17T06:01:07.755Z,14.70
2019-03-17T06:03:37.291Z,14.79
2019-03-17T06:06:06.802Z,14.83
2019-03-17T06:08:36.356Z,14.84
2019-03-17T06:11:05.885Z,15.04
2019-03-17T06:13:35.418Z,15.19
2019-03-17T06:16:05.002Z,15.33
2019-03-17T06:18:34.547Z,15.45
2019-03-17T06:21:04.109Z,15.81
2019-03-17T06:23:33.712Z,16.26
2019-03-17T06:26:03.195Z,16.42
2019-03-17T06:28:32.738Z,16.44
2019-03-17T06:31:02.271Z,16.51
2019-03-17T06:33:31.812Z,16.33
2019-03-17T06:36:01.360Z,16.53
2019-03-17T06:38:30.879Z,16.87
2019-03-17T06:41:00.411Z,17.20
2019-03-17T06:43:29.975Z,17.52
2019-03-17T06:45:59.536Z,17.77
2019-03-17T06:48:29.058Z,18.36
2019-03-17T06:50:58.596Z,20.10
2019-03-17T06:53:28.136Z,20.92
2019-03-17T06:55:57.668Z,22.04
2019-03-17T06:58:27.229Z,21.84
2019-03-17T07:00:56.754Z,21.04
2019-03-17T07:03:26.290Z,20.77
2019-03-17T07:05:55.837Z,20.27
2019-03-17T07:08:25.390Z,19.64
2019-03-17T07:10:54.908Z,18.72
2019-03-17T07:13:24.456Z,18.66
2019-03-17T07:15:54.003Z,18.63
2019-03-17T07:18:23.548Z,18.67
2019-03-17T07:20:53.152Z,18.86
2019-03-17T07:23:22.694Z,18.55
2019-03-17T07:25:52.253Z,18.59
2019-03-17T07:28:21.787Z,18.45
2019-03-17T07:30:51.322Z,18.61
2019-03-17T07:33:20.858Z,18.64
2019-03-17T07:35:50.391Z,18.48
2019-03-17T07:38:19.953Z,18.41
2019-03-17T07:40:49.475Z,18.74
2019-03-17T07:43:19.005Z,18.93
2019-03-17T07:45:48.545Z,18.98
2019-03-17T07:48:18.100Z,19.13
2019-03-17T07:50:47.605Z,19.14
2019-03-17T07:53:17.151Z,19.36
2019-03-17T07:55:46.701Z,18.80
2019-03-17T07:58:16.227Z,19.01
2019-03-17T08:00:45.757Z,19.00
2019-03-17T08:03:15.334Z,19.36
2019-03-17T08:05:44.860Z,19.78
2019-03-17T08:08:14.390Z,19.54
2019-03-17T08:10:43.947Z,19.33
2019-03-17T08:13:13.486Z,19.44
2019-03-17T08:15:43.038Z,19.20
2019-03-17T08:18:12.569Z,19.06
2019-03-17T08:20:42.105Z,19.15
2019-03-17T08:23:11.652Z,19.44
2019-03-17T08:25:41.228Z,19.72
2019-03-17T08:28:10.831Z,19.73
2019-03-17T08:30:52.159Z,19.95
2019-03-17T08:33:11.721Z,20.02
2019-03-17T08:35:41.473Z,20.13
2019-03-17T08:38:21.284Z,20.40
2019-03-17T08:40:42.403Z,20.66
2019-03-17T08:43:12.123Z,20.92
2019-03-17T08:45:41.658Z,21.05
2019-03-17T08:48:11.204Z,21.26
2019-03-17T08:50:40.930Z,21.36
2019-03-17T08:53:10.470Z,21.53
2019-03-17T08:55:40.042Z,21.55
2019-03-17T08:58:09.707Z,21.67
2019-03-17T09:00:39.264Z,21.34
2019-03-17T09:03:09.002Z,21.42
2019-03-17T09:05:38.802Z,21.60
2019-03-17T09:08:08.367Z,21.63
2019-03-17T09:10:37.993Z,21.75
2019-03-17T09:13:07.711Z,21.73
2019-03-17T09:15:37.456Z,21.94
2019-03-17T09:18:07.009Z,22.30
2019-03-17T09:20:36.661Z,22.18
2019-03-17T09:23:06.202Z,22.38
2019-03-17T09:25:35.838Z,22.49
2019-03-17T09:28:05.380Z,22.71
2019-03-17T09:30:34.962Z,22.79
2019-03-17T09:33:04.494Z,23.02
2019-03-17T09:35:34.013Z,23.33
2019-03-17T09:38:03.546Z,23.50
2019-03-17T09:40:33.102Z,23.26
2019-03-17T09:43:02.614Z,23.45
2019-03-17T09:45:32.185Z,23.97
2019-03-17T09:48:01.719Z,24.28
2019-03-17T09:50:31.236Z,24.69
2019-03-17T09:53:00.773Z,24.87
2019-03-17T09:55:30.287Z,24.64
2019-03-17T09:57:59.810Z,24.88
2019-03-17T10:00:29.333Z,25.08
2019-03-17T10:02:58.863Z,24.78
2019-03-17T10:05:28.359Z,24.85
2019-03-17T10:07:57.946Z,25.16
2019-03-17T10:10:27.504Z,25.47
2019-03-17T10:12:57.044Z,25.57
2019-03-17T10:15:26.583Z,25.92
2019-03-17T10:17:56.136Z,25.37
2019-03-17T10:20:25.681Z,25.46
2019-03-17T10:22:55.321Z,25.83
2019-03-17T10:25:24.991Z,25.94
2019-03-17T10:27:54.552Z,26.07
2019-03-17T10:30:24.097Z,26.24
2019-03-17T10:32:53.650Z,26.43
2019-03-17T10:35:23.180Z,26.47
2019-03-17T10:37:52.723Z,26.64
2019-03-17T10:40:22.278Z,26.03
2019-03-17T10:42:51.940Z,26.06
2019-03-17T10:45:21.480Z,26.24
2019-03-17T10:47:52.203Z,26.17
2019-03-17T10:50:22.382Z,25.75
2019-03-17T10:52:51.926Z,25.85
2019-03-17T10:55:21.445Z,26.55
2019-03-17T10:57:51.025Z,27.08
2019-03-17T11:00:20.550Z,27.15
2019-03-17T11:02:50.078Z,27.58
2019-03-17T11:05:19.606Z,27.30
2019-03-17T11:07:49.548Z,27.42
2019-03-17T11:10:19.075Z,28.38
2019-03-17T11:12:48.625Z,28.30
2019-03-17T11:15:18.167Z,29.06
2019-03-17T11:17:47.712Z,29.29
2019-03-17T11:20:17.279Z,29.17
2019-03-17T11:22:46.827Z,29.30
2019-03-17T11:25:16.385Z,29.92
2019-03-17T11:27:45.912Z,29.73
2019-03-17T11:30:15.575Z,29.73
2019-03-17T11:32:45.100Z,30.72
2019-03-17T11:35:14.643Z,31.13
2019-03-17T11:37:44.187Z,30.99
2019-03-17T11:40:14.219Z,30.68
2019-03-17T11:42:43.742Z,30.86
2019-03-17T11:45:13.861Z,30.64
2019-03-17T11:47:43.401Z,30.55
2019-03-17T11:50:13.283Z,30.74
2019-03-17T11:52:42.822Z,30.70
2019-03-17T11:55:14.835Z,32.03
2019-03-17T11:57:44.368Z,31.78
2019-03-17T12:00:14.698Z,31.50
2019-03-17T12:02:44.242Z,31.22
2019-03-17T12:05:13.811Z,31.34
2019-03-17T12:07:43.453Z,30.63
2019-03-17T12:10:13.994Z,30.18
2019-03-17T12:12:43.510Z,30.58
2019-03-17T12:15:14.723Z,31.13
2019-03-17T12:17:44.276Z,32.02
2019-03-17T12:20:13.898Z,31.01
2019-03-17T12:22:43.429Z,31.44
2019-03-17T12:25:13.326Z,31.53
2019-03-17T12:27:42.867Z,30.93
2019-03-17T12:30:19.539Z,31.00
2019-03-17T12:32:49.363Z,30.12
2019-03-17T12:35:18.933Z,30.51
2019-03-17T12:37:48.480Z,31.14
2019-03-17T12:40:18.114Z,29.10
2019-03-17T12:42:47.694Z,29.10
2019-03-17T12:45:17.215Z,27.58
2019-03-17T12:47:46.737Z,26.61
2019-03-17T12:50:16.309Z,25.93
2019-03-17T12:52:45.827Z,25.14
2019-03-17T12:55:15.362Z,24.65
2019-03-17T12:57:44.991Z,24.11
2019-03-17T13:00:15.640Z,23.86
2019-03-17T13:02:45.182Z,23.66
2019-03-17T13:05:14.736Z,23.37
2019-03-17T13:07:44.287Z,23.00
2019-03-17T13:10:16.414Z,22.93
2019-03-17T13:12:46.425Z,22.88
2019-03-17T13:15:15.989Z,22.79
2019-03-17T13:17:45.522Z,22.73
2019-03-17T13:20:15.135Z,22.67
2019-03-17T13:22:44.703Z,22.67
2019-03-17T13:25:14.275Z,22.65
2019-03-17T13:27:43.800Z,22.59
2019-03-17T13:30:13.652Z,22.57
2019-03-17T13:32:43.194Z,22.46
2019-03-17T13:35:12.760Z,22.48
2019-03-17T13:37:42.321Z,22.47
2019-03-17T13:40:12.648Z,22.43
2019-03-17T13:42:42.180Z,22.46
2019-03-17T13:45:12.009Z,22.38
2019-03-17T13:47:41.554Z,22.24
2019-03-17T13:50:13.125Z,22.27
2019-03-17T13:52:42.668Z,22.22
2019-03-17T13:55:12.332Z,22.22
2019-03-17T13:57:42.665Z,22.17
2019-03-17T14:00:15.343Z,22.07
2019-03-17T14:02:45.001Z,22.02
2019-03-17T14:05:14.588Z,22.11
2019-03-17T14:07:44.469Z,22.10
2019-03-17T14:10:15.516Z,22.03
2019-03-17T14:12:45.082Z,21.96
2019-03-17T14:15:15.270Z,21.86
2019-03-17T14:17:44.830Z,21.78
2019-03-17T14:20:16.022Z,21.68
2019-03-17T14:22:45.528Z,21.69
2019-03-17T14:25:17.672Z,21.65
2019-03-17T14:27:47.209Z,21.66
2019-03-17T14:30:17.201Z,21.60
2019-03-17T14:32:46.750Z,21.52
2019-03-17T14:35:16.292Z,21.48
2019-03-17T14:37:45.810Z,21.39
2019-03-17T14:40:15.450Z,21.33
2019-03-17T14:42:45.339Z,21.30
2019-03-17T14:45:15.332Z,21.31
2019-03-17T14:47:44.880Z,21.28
2019-03-17T14:50:16.318Z,21.26
2019-03-17T14:52:45.846Z,21.15
2019-03-17T14:55:15.383Z,21.07
2019-03-17T14:57:44.937Z,21.04
2019-03-17T15:00:16.490Z,21.03
2019-03-17T15:02:46.254Z,21.10
2019-03-17T15:05:15.800Z,20.99
2019-03-17T15:07:45.412Z,20.96
2019-03-17T15:10:16.460Z,20.84
2019-03-17T15:12:46.035Z,20.72
2019-03-17T15:15:16.280Z,20.63
2019-03-17T15:17:45.812Z,20.59
2019-03-17T15:20:16.920Z,20.53
2019-03-17T15:22:46.483Z,20.53
2019-03-17T15:25:16.059Z,20.39
2019-03-17T15:27:45.576Z,20.37
2019-03-17T15:30:20.152Z,20.28
2019-03-17T15:32:49.746Z,20.22
2019-03-17T15:35:19.312Z,20.19
2019-03-17T15:37:48.863Z,20.04
2019-03-17T15:40:18.445Z,19.98
2019-03-17T15:42:47.962Z,19.91
2019-03-17T15:45:17.534Z,19.84
2019-03-17T15:47:47.144Z,19.75
2019-03-17T15:50:17.545Z,19.66
2019-03-17T15:52:47.091Z,19.60
2019-03-17T15:55:16.632Z,19.54
2019-03-17T15:57:46.168Z,19.42
2019-03-17T16:00:24.738Z,19.38
2019-03-17T16:02:48.936Z,19.29
2019-03-17T16:05:18.493Z,19.15
2019-03-17T16:07:48.031Z,19.02
2019-03-17T16:10:18.583Z,18.96
2019-03-17T16:12:48.178Z,18.86
2019-03-17T16:15:17.825Z,18.73
2019-03-17T16:17:47.386Z,18.60
2019-03-17T16:20:18.068Z,18.48
2019-03-17T16:22:47.643Z,18.35
2019-03-17T16:25:17.804Z,18.23
2019-03-17T16:27:47.361Z,18.07
2019-03-17T16:30:21.196Z,17.90
2019-03-17T16:32:50.746Z,17.88
2019-03-17T16:35:20.281Z,17.79
2019-03-17T16:37:49.819Z,17.67
2019-03-17T16:40:20.851Z,17.56
2019-03-17T16:42:53.436Z,17.42
2019-03-17T16:45:21.682Z,17.27
2019-03-17T16:47:51.213Z,17.07
2019-03-17T16:50:20.758Z,16.83
2019-03-17T16:52:50.310Z,16.63
2019-03-17T16:55:19.847Z,16.48
2019-03-17T16:57:49.398Z,16.31
2019-03-17T17:00:19.762Z,16.15
2019-03-17T17:02:49.365Z,16.05
2019-03-17T17:05:18.943Z,15.97
2019-03-17T17:07:48.486Z,15.86
2019-03-17T17:10:18.633Z,15.70
2019-03-17T17:12:48.194Z,15.52
2019-03-17T17:15:19.737Z,15.38
2019-03-17T17:17:49.655Z,15.24
2019-03-17T17:20:21.450Z,15.14
2019-03-17T17:22:51.175Z,15.03
2019-03-17T17:25:20.727Z,14.94
2019-03-17T17:27:50.257Z,14.83
2019-03-17T17:30:19.842Z,14.82
2019-03-17T17:32:49.652Z,14.73
2019-03-17T17:35:19.227Z,14.62
2019-03-17T17:37:48.801Z,14.61
2019-03-17T17:40:18.517Z,14.67
2019-03-17T17:42:48.053Z,14.63
2019-03-17T17:45:17.729Z,14.57
2019-03-17T17:47:47.279Z,14.52
2019-03-17T17:50:17.418Z,14.55
2019-03-17T17:52:46.958Z,14.46
2019-03-17T17:55:16.497Z,14.43
2019-03-17T17:57:46.029Z,14.38
2019-03-17T18:00:18.730Z,14.29
2019-03-17T18:02:48.279Z,14.18
2019-03-17T18:05:17.831Z,14.15
2019-03-17T18:07:47.363Z,14.18
2019-03-17T18:10:16.964Z,14.21
2019-03-17T18:12:46.511Z,14.19
2019-03-17T18:15:17.527Z,14.19
2019-03-17T18:17:47.106Z,14.27
2019-03-17T18:20:16.686Z,14.25
2019-03-17T18:22:46.210Z,14.22
2019-03-17T18:25:15.771Z,14.22
2019-03-17T18:27:45.310Z,14.15
2019-03-17T18:30:15.972Z,14.10
2019-03-17T18:32:45.538Z,14.02
2019-03-17T18:35:15.146Z,13.95
2019-03-17T18:37:44.683Z,13.93
2019-03-17T18:40:14.785Z,13.96
2019-03-17T18:42:44.334Z,13.86
2019-03-17T18:45:15.807Z,13.75
2019-03-17T18:47:45.365Z,13.65
2019-03-17T18:50:20.171Z,13.57
2019-03-17T18:52:47.307Z,13.51
2019-03-17T18:55:16.980Z,13.42
2019-03-17T18:57:46.523Z,13.33
2019-03-17T19:00:17.083Z,13.09
2019-03-17T19:02:46.605Z,13.20
2019-03-17T19:05:19.300Z,13.16
2019-03-17T19:07:47.453Z,13.22
2019-03-17T19:10:16.984Z,13.20
2019-03-17T19:12:46.586Z,13.24
2019-03-17T19:15:16.248Z,13.24
2019-03-17T19:17:45.773Z,13.25
2019-03-17T19:20:15.763Z,13.27
2019-03-17T19:22:45.326Z,13.21
2019-03-17T19:25:15.485Z,13.17
2019-03-17T19:27:45.046Z,13.21
2019-03-17T19:30:15.973Z,13.26
2019-03-17T19:32:45.698Z,13.24
2019-03-17T19:35:15.277Z,13.27
2019-03-17T19:37:44.817Z,13.28
2019-03-17T19:40:15.046Z,13.24
2019-03-17T19:42:57.435Z,13.13
2019-03-17T19:45:15.868Z,13.05
2019-03-17T19:47:45.423Z,12.86
2019-03-17T19:50:15.122Z,12.68
2019-03-17T19:52:44.674Z,12.65
2019-03-17T19:55:14.209Z,12.59
2019-03-17T19:57:43.760Z,12.53
2019-03-17T20:00:14.670Z,12.56
2019-03-17T20:02:47.152Z,12.57
2019-03-17T20:05:15.584Z,12.48
2019-03-17T20:07:45.137Z,12.46
2019-03-17T20:10:17.312Z,12.41
2019-03-17T20:12:46.866Z,12.33
2019-03-17T20:15:16.443Z,12.27
2019-03-17T20:17:46.051Z,12.18
2019-03-17T20:20:15.611Z,12.14
2019-03-17T20:22:45.233Z,12.05
2019-03-17T20:25:14.814Z,11.98
2019-03-17T20:27:44.436Z,11.82
2019-03-17T20:30:14.065Z,11.72
2019-03-17T20:32:43.627Z,11.75
2019-03-17T20:35:13.168Z,11.77
2019-03-17T20:37:42.737Z,11.80
2019-03-17T20:40:12.507Z,11.82
2019-03-17T20:42:42.064Z,11.92
2019-03-17T20:45:11.634Z,11.89
2019-03-17T20:47:41.170Z,11.96
2019-03-17T20:50:11.551Z,11.92
2019-03-17T20:52:41.106Z,11.88
2019-03-17T20:55:10.715Z,11.80
2019-03-17T20:57:40.298Z,11.74
2019-03-17T21:00:12.018Z,11.78
2019-03-17T21:02:41.569Z,11.78
2019-03-17T21:05:11.211Z,11.80
2019-03-17T21:07:40.786Z,11.91
2019-03-17T21:10:11.161Z,11.90
2019-03-17T21:12:40.875Z,11.88
2019-03-17T21:15:11.811Z,11.81
2019-03-17T21:17:41.365Z,11.78
2019-03-17T21:20:13.043Z,11.75
2019-03-17T21:22:42.638Z,11.74
2019-03-17T21:25:12.354Z,11.72
2019-03-17T21:27:41.883Z,11.68
2019-03-17T21:30:14.532Z,11.69
2019-03-17T21:32:44.078Z,11.66
2019-03-17T21:35:13.625Z,11.58
2019-03-17T21:37:43.162Z,11.48
2019-03-17T21:40:12.732Z,11.45
2019-03-17T21:42:42.253Z,11.36
2019-03-17T21:45:11.820Z,11.25
2019-03-17T21:47:41.366Z,11.22
2019-03-17T21:50:12.957Z,11.15
2019-03-17T21:52:42.496Z,11.13
2019-03-17T21:55:12.071Z,11.15
2019-03-17T21:57:41.592Z,11.02
2019-03-17T22:00:13.333Z,10.95
2019-03-17T22:02:42.860Z,10.89
2019-03-17T22:05:13.222Z,10.81
2019-03-17T22:07:49.520Z,10.80
2019-03-17T22:10:14.171Z,10.80
2019-03-17T22:12:43.684Z,10.84
2019-03-17T22:15:13.250Z,10.93
2019-03-17T22:17:42.789Z,10.83
2019-03-17T22:20:12.495Z,10.83
2019-03-17T22:22:42.018Z,10.85
2019-03-17T22:25:11.565Z,10.80
2019-03-17T22:27:41.186Z,10.67
2019-03-17T22:30:12.112Z,10.71
2019-03-17T22:32:41.649Z,10.61
2019-03-17T22:35:11.223Z,10.56
2019-03-17T22:37:40.763Z,10.48
2019-03-17T22:40:11.774Z,10.48
2019-03-17T22:42:41.334Z,10.43
2019-03-17T22:45:11.017Z,10.39
2019-03-17T22:47:40.538Z,10.40
2019-03-17T22:50:10.617Z,10.37
2019-03-17T22:52:40.145Z,10.44
2019-03-17T22:55:09.918Z,10.33
2019-03-17T22:57:39.464Z,10.40
2019-03-17T23:00:11.761Z,10.38
2019-03-17T23:02:41.287Z,10.46
2019-03-17T23:05:10.810Z,10.40
2019-03-17T23:07:40.379Z,10.34
2019-03-17T23:10:10.499Z,10.39
2019-03-17T23:12:40.056Z,10.35
2019-03-17T23:15:09.764Z,10.48
2019-03-17T23:17:39.317Z,10.50
2019-03-17T23:20:09.578Z,10.50
2019-03-17T23:22:39.151Z,10.51
2019-03-17T23:25:09.000Z,10.52
2019-03-17T23:27:38.547Z,10.40
2019-03-17T23:30:08.831Z,10.40
2019-03-17T23:32:38.367Z,10.33
2019-03-17T23:35:08.239Z,10.25
2019-03-17T23:37:37.812Z,10.21
2019-03-17T23:40:09.657Z,10.16
2019-03-17T23:42:38.700Z,10.19
2019-03-17T23:45:08.452Z,10.20
2019-03-17T23:47:38.030Z,10.32
2019-03-17T23:50:07.868Z,10.55
2019-03-17T23:52:37.423Z,10.60
2019-03-17T23:55:07.362Z,10.59
2019-03-17T23:57:36.904Z,10.65
